sensor_id;sensor_type;location;lat;lon;timestamp;pressure;altitude;pressure_sealevel;temperature;humidity
6387;BME280;3226;42.162;24.756;2023-04-02T01:18:44;98754.72;;;8.34;74.47
6387;BME280;3226;42.162;24.756;2023-04-02T01:21:46;98751.13;;;8.25;75.11
6387;BME280;3226;42.162;24.756;2023-04-02T01:24:20;98743.47;;;8.43;73.56
6387;BME280;3226;42.162;24.756;2023-04-02T01:26:55;98748.25;;;8.38;73.87
6387;BME280;3226;42.162;24.756;2023-04-02T01:29:27;98754.59;;;8.35;74.32
6387;BME280;3226;42.162;24.756;2023-04-02T01:31:59;98752.78;;;8.36;73.75
6387;BME280;3226;42.162;24.756;2023-04-02T01:34:28;98760.22;;;8.41;74.33
6387;BME280;3226;42.162;24.756;2023-04-02T01:37:11;98761.03;;;8.31;74.17
6387;BME280;3226;42.162;24.756;2023-04-02T01:40:06;98746.41;;;8.09;74.71
6387;BME280;3226;42.162;24.756;2023-04-02T01:42:40;98760.31;;;8.29;74.60
6387;BME280;3226;42.162;24.756;2023-04-02T01:45:15;98753.72;;;8.25;74.39
6387;BME280;3226;42.162;24.756;2023-04-02T01:47:43;98759.91;;;8.24;74.41
6387;BME280;3226;42.162;24.756;2023-04-02T01:50:23;98766.78;;;8.35;73.70
6387;BME280;3226;42.162;24.756;2023-04-02T01:52:54;98760.22;;;8.41;73.38
6387;BME280;3226;42.162;24.756;2023-04-02T01:55:29;98723.56;;;8.32;72.71
6387;BME280;3226;42.162;24.756;2023-04-02T01:57:59;98750.66;;;8.51;72.66
6387;BME280;3226;42.162;24.756;2023-04-02T02:00:31;98758.84;;;8.36;72.39
6387;BME280;3226;42.162;24.756;2023-04-02T02:03:01;98753.25;;;8.51;72.08
6387;BME280;3226;42.162;24.756;2023-04-02T02:05:29;98753.81;;;8.55;71.79
6387;BME280;3226;42.162;24.756;2023-04-02T02:07:58;98744.06;;;8.57;71.88
6387;BME280;3226;42.162;24.756;2023-04-02T02:10:33;98747.50;;;8.57;71.92
6387;BME280;3226;42.162;24.756;2023-04-02T02:13:01;98748.88;;;8.61;71.06
6387;BME280;3226;42.162;24.756;2023-04-02T02:15:32;98745.69;;;8.48;72.10
6387;BME280;3226;42.162;24.756;2023-04-02T02:18:04;98735.34;;;8.46;71.83
6387;BME280;3226;42.162;24.756;2023-04-02T02:20:33;98727.97;;;8.42;71.71
6387;BME280;3226;42.162;24.756;2023-04-02T02:23:01;98736.88;;;8.49;72.12
6387;BME280;3226;42.162;24.756;2023-04-02T02:25:32;98736.25;;;8.57;71.93
6387;BME280;3226;42.162;24.756;2023-04-02T02:28:05;98732.88;;;8.35;72.54
6387;BME280;3226;42.162;24.756;2023-04-02T02:30:37;98729.59;;;8.43;72.56
6387;BME280;3226;42.162;24.756;2023-04-02T02:33:09;98738.75;;;8.27;73.62
6387;BME280;3226;42.162;24.756;2023-04-02T02:35:43;98735.50;;;8.35;72.95
6387;BME280;3226;42.162;24.756;2023-04-02T02:38:37;98733.59;;;8.47;72.10
6387;BME280;3226;42.162;24.756;2023-04-02T02:41:12;98727.22;;;8.20;71.91
6387;BME280;3226;42.162;24.756;2023-04-02T02:43:50;98719.81;;;8.25;71.47
6387;BME280;3226;42.162;24.756;2023-04-02T02:46:22;98731.63;;;8.19;71.52
6387;BME280;3226;42.162;24.756;2023-04-02T02:48:52;98753.22;;;7.90;74.03
6387;BME280;3226;42.162;24.756;2023-04-02T02:51:27;98737.56;;;7.28;76.09
6387;BME280;3226;42.162;24.756;2023-04-02T02:53:59;98758.09;;;7.21;77.23
6387;BME280;3226;42.162;24.756;2023-04-02T02:56:30;98753.09;;;7.08;78.37
6387;BME280;3226;42.162;24.756;2023-04-02T02:59:03;98755.63;;;7.20;77.66
6387;BME280;3226;42.162;24.756;2023-04-02T03:01:35;98766.47;;;7.46;76.06
6387;BME280;3226;42.162;24.756;2023-04-02T03:04:03;98758.75;;;7.66;75.37
6387;BME280;3226;42.162;24.756;2023-04-02T03:06:32;98761.16;;;7.89;73.93
6387;BME280;3226;42.162;24.756;2023-04-02T03:09:08;98751.88;;;7.96;74.61
6387;BME280;3226;42.162;24.756;2023-04-02T03:11:43;98751.34;;;8.12;73.92
6387;BME280;3226;42.162;24.756;2023-04-02T03:14:19;98758.28;;;8.33;73.57
6387;BME280;3226;42.162;24.756;2023-04-02T03:16:56;98752.34;;;8.21;73.07
6387;BME280;3226;42.162;24.756;2023-04-02T03:19:28;98753.97;;;8.12;73.34
6387;BME280;3226;42.162;24.756;2023-04-02T03:22:04;98761.56;;;8.25;74.02
6387;BME280;3226;42.162;24.756;2023-04-02T03:24:38;98754.00;;;8.22;74.31
6387;BME280;3226;42.162;24.756;2023-04-02T03:27:12;98749.19;;;8.17;74.30
6387;BME280;3226;42.162;24.756;2023-04-02T03:29:44;98753.50;;;8.48;73.25
6387;BME280;3226;42.162;24.756;2023-04-02T03:32:21;98755.59;;;8.54;72.84
6387;BME280;3226;42.162;24.756;2023-04-02T03:34:52;98754.25;;;8.60;73.36
6387;BME280;3226;42.162;24.756;2023-04-02T03:37:25;98767.38;;;8.48;73.77
6387;BME280;3226;42.162;24.756;2023-04-02T03:39:59;98763.94;;;8.48;74.01
6387;BME280;3226;42.162;24.756;2023-04-02T03:42:37;98770.97;;;8.57;74.13
6387;BME280;3226;42.162;24.756;2023-04-02T03:45:12;98772.50;;;8.50;74.51
6387;BME280;3226;42.162;24.756;2023-04-02T03:47:47;98772.84;;;8.35;75.74
6387;BME280;3226;42.162;24.756;2023-04-02T03:50:24;98738.63;;;8.19;75.58
6387;BME280;3226;42.162;24.756;2023-04-02T03:52:55;98784.31;;;8.54;75.26
6387;BME280;3226;42.162;24.756;2023-04-02T03:55:25;98784.41;;;8.43;75.26
6387;BME280;3226;42.162;24.756;2023-04-02T03:57:59;98784.94;;;8.46;75.56
6387;BME280;3226;42.162;24.756;2023-04-02T04:00:33;98779.03;;;8.34;76.22
6387;BME280;3226;42.162;24.756;2023-04-02T04:03:10;98776.66;;;8.21;76.74
6387;BME280;3226;42.162;24.756;2023-04-02T04:05:44;98765.81;;;8.26;76.75
6387;BME280;3226;42.162;24.756;2023-04-02T04:08:16;98773.88;;;8.03;77.92
6387;BME280;3226;42.162;24.756;2023-04-02T04:10:50;98781.53;;;8.05;78.37
6387;BME280;3226;42.162;24.756;2023-04-02T04:13:22;98780.19;;;8.10;78.27
6387;BME280;3226;42.162;24.756;2023-04-02T04:15:54;98783.06;;;7.76;79.02
6387;BME280;3226;42.162;24.756;2023-04-02T04:18:31;98782.41;;;7.53;80.82
6387;BME280;3226;42.162;24.756;2023-04-02T04:21:09;98766.91;;;7.30;81.55
6387;BME280;3226;42.162;24.756;2023-04-02T04:23:46;98786.88;;;7.41;81.92
6387;BME280;3226;42.162;24.756;2023-04-02T04:26:20;98798.81;;;7.44;81.72
6387;BME280;3226;42.162;24.756;2023-04-02T04:28:58;98788.38;;;7.65;81.34
6387;BME280;3226;42.162;24.756;2023-04-02T04:31:34;98791.00;;;7.65;81.13
6387;BME280;3226;42.162;24.756;2023-04-02T04:34:09;98785.09;;;7.63;80.78
6387;BME280;3226;42.162;24.756;2023-04-02T04:36:40;98792.38;;;7.69;80.38
6387;BME280;3226;42.162;24.756;2023-04-02T04:39:23;98769.09;;;7.77;79.67
6387;BME280;3226;42.162;24.756;2023-04-02T04:41:56;98784.84;;;8.07;79.04
6387;BME280;3226;42.162;24.756;2023-04-02T04:44:37;98782.09;;;8.08;77.85
6387;BME280;3226;42.162;24.756;2023-04-02T04:47:10;98787.38;;;8.28;77.88
6387;BME280;3226;42.162;24.756;2023-04-02T04:49:45;98791.47;;;8.21;77.07
6387;BME280;3226;42.162;24.756;2023-04-02T04:52:18;98785.91;;;8.35;76.47
6387;BME280;3226;42.162;24.756;2023-04-02T04:54:47;98796.41;;;8.24;76.11
6387;BME280;3226;42.162;24.756;2023-04-02T04:57:24;98772.47;;;7.99;76.04
6387;BME280;3226;42.162;24.756;2023-04-02T04:59:59;98781.97;;;8.10;76.58
6387;BME280;3226;42.162;24.756;2023-04-02T05:02:37;98800.53;;;8.17;76.17
6387;BME280;3226;42.162;24.756;2023-04-02T05:05:18;98808.09;;;8.20;76.41
6387;BME280;3226;42.162;24.756;2023-04-02T05:07:49;98810.16;;;8.26;75.57
6387;BME280;3226;42.162;24.756;2023-04-02T05:10:22;98812.78;;;8.36;75.85
6387;BME280;3226;42.162;24.756;2023-04-02T05:12:54;98809.09;;;8.48;75.26
6387;BME280;3226;42.162;24.756;2023-04-02T05:15:26;98813.97;;;8.53;74.70
6387;BME280;3226;42.162;24.756;2023-04-02T05:18:12;98816.34;;;8.66;74.72
6387;BME280;3226;42.162;24.756;2023-04-02T05:20:49;98815.13;;;8.80;73.73
6387;BME280;3226;42.162;24.756;2023-04-02T05:23:22;98812.50;;;9.00;72.99
6387;BME280;3226;42.162;24.756;2023-04-02T05:25:54;98818.00;;;9.16;72.30
6387;BME280;3226;42.162;24.756;2023-04-02T05:28:32;98822.97;;;9.29;71.66
6387;BME280;3226;42.162;24.756;2023-04-02T05:31:04;98813.59;;;9.26;70.85
6387;BME280;3226;42.162;24.756;2023-04-02T05:33:34;98819.09;;;9.43;70.88
6387;BME280;3226;42.162;24.756;2023-04-02T05:36:07;98826.88;;;9.63;69.74
6387;BME280;3226;42.162;24.756;2023-04-02T05:38:39;98826.97;;;9.91;68.06
6387;BME280;3226;42.162;24.756;2023-04-02T05:41:20;98832.91;;;10.21;66.84
6387;BME280;3226;42.162;24.756;2023-04-02T05:43:55;98827.78;;;10.57;65.35
6387;BME280;3226;42.162;24.756;2023-04-02T05:46:29;98823.56;;;10.92;64.15
6387;BME280;3226;42.162;24.756;2023-04-02T05:48:59;98826.91;;;11.65;61.97
6387;BME280;3226;42.162;24.756;2023-04-02T05:51:35;98827.09;;;11.98;60.91
6387;BME280;3226;42.162;24.756;2023-04-02T05:54:14;98820.59;;;12.46;59.41
6387;BME280;3226;42.162;24.756;2023-04-02T05:56:46;98828.22;;;12.57;57.97
6387;BME280;3226;42.162;24.756;2023-04-02T05:59:18;98830.84;;;12.65;56.19
6387;BME280;3226;42.162;24.756;2023-04-02T06:01:50;98841.13;;;12.50;55.43
6387;BME280;3226;42.162;24.756;2023-04-02T06:04:25;98841.19;;;12.67;55.44
6387;BME280;3226;42.162;24.756;2023-04-02T06:07:03;98840.41;;;12.83;54.52
6387;BME280;3226;42.162;24.756;2023-04-02T06:09:39;98850.78;;;13.01;55.90
6387;BME280;3226;42.162;24.756;2023-04-02T06:12:18;98847.66;;;13.22;53.81
6387;BME280;3226;42.162;24.756;2023-04-02T06:14:49;98852.75;;;12.99;51.94
6387;BME280;3226;42.162;24.756;2023-04-02T06:17:18;98850.09;;;12.99;52.56
6387;BME280;3226;42.162;24.756;2023-04-02T06:19:47;98857.34;;;12.97;53.22
6387;BME280;3226;42.162;24.756;2023-04-02T06:22:22;98857.53;;;13.20;53.32
6387;BME280;3226;42.162;24.756;2023-04-02T06:24:57;98855.22;;;13.09;53.94
6387;BME280;3226;42.162;24.756;2023-04-02T06:27:27;98856.19;;;12.91;53.70
6387;BME280;3226;42.162;24.756;2023-04-02T06:29:59;98840.34;;;12.58;54.35
6387;BME280;3226;42.162;24.756;2023-04-02T06:32:29;98860.47;;;12.41;56.50
6387;BME280;3226;42.162;24.756;2023-04-02T06:34:57;98866.88;;;12.47;56.91
6387;BME280;3226;42.162;24.756;2023-04-02T06:37:30;98876.03;;;12.77;56.44
6387;BME280;3226;42.162;24.756;2023-04-02T06:40:00;98882.78;;;12.88;55.08
6387;BME280;3226;42.162;24.756;2023-04-02T06:42:32;98884.25;;;12.74;55.63
6387;BME280;3226;42.162;24.756;2023-04-02T06:45:01;98879.34;;;12.87;55.53
6387;BME280;3226;42.162;24.756;2023-04-02T06:47:33;98801.09;;;12.48;54.68
6387;BME280;3226;42.162;24.756;2023-04-02T06:50:06;98876.41;;;12.99;54.38
6387;BME280;3226;42.162;24.756;2023-04-02T06:52:43;98877.88;;;12.93;54.57
6387;BME280;3226;42.162;24.756;2023-04-02T06:55:26;98880.19;;;12.96;53.57
6387;BME280;3226;42.162;24.756;2023-04-02T06:57:56;98879.34;;;13.04;53.47
6387;BME280;3226;42.162;24.756;2023-04-02T07:00:28;98888.00;;;12.71;53.46
6387;BME280;3226;42.162;24.756;2023-04-02T07:02:58;98884.13;;;12.92;53.91
6387;BME280;3226;42.162;24.756;2023-04-02T07:05:28;98888.75;;;13.23;53.03
6387;BME280;3226;42.162;24.756;2023-04-02T07:07:58;98882.06;;;13.54;51.37
6387;BME280;3226;42.162;24.756;2023-04-02T07:10:26;98886.28;;;13.13;52.14
6387;BME280;3226;42.162;24.756;2023-04-02T07:12:54;98893.66;;;13.10;52.65
6387;BME280;3226;42.162;24.756;2023-04-02T07:15:22;98899.91;;;13.17;53.59
6387;BME280;3226;42.162;24.756;2023-04-02T07:17:51;98900.88;;;12.99;50.82
6387;BME280;3226;42.162;24.756;2023-04-02T07:20:26;98900.44;;;13.21;51.02
6387;BME280;3226;42.162;24.756;2023-04-02T07:22:54;98897.63;;;13.22;51.84
6387;BME280;3226;42.162;24.756;2023-04-02T07:25:25;98881.03;;;13.30;50.98
6387;BME280;3226;42.162;24.756;2023-04-02T07:27:53;98908.31;;;13.37;50.82
6387;BME280;3226;42.162;24.756;2023-04-02T07:30:21;98910.50;;;13.67;50.53
6387;BME280;3226;42.162;24.756;2023-04-02T07:32:49;98913.94;;;13.67;50.21
6387;BME280;3226;42.162;24.756;2023-04-02T07:35:17;98915.44;;;13.78;49.56
6387;BME280;3226;42.162;24.756;2023-04-02T07:37:45;98916.38;;;13.94;49.65
6387;BME280;3226;42.162;24.756;2023-04-02T07:40:15;98902.25;;;13.95;49.05
6387;BME280;3226;42.162;24.756;2023-04-02T07:42:46;98914.03;;;14.32;49.69
6387;BME280;3226;42.162;24.756;2023-04-02T07:45:14;98918.69;;;14.62;49.28
6387;BME280;3226;42.162;24.756;2023-04-02T07:47:43;98906.16;;;14.72;47.19
6387;BME280;3226;42.162;24.756;2023-04-02T07:50:11;98920.47;;;15.32;47.22
6387;BME280;3226;42.162;24.756;2023-04-02T07:52:39;98918.22;;;15.68;44.54
6387;BME280;3226;42.162;24.756;2023-04-02T07:55:08;98915.50;;;15.99;44.01
6387;BME280;3226;42.162;24.756;2023-04-02T07:57:38;98916.91;;;16.10;42.77
6387;BME280;3226;42.162;24.756;2023-04-02T08:00:13;98913.41;;;15.71;43.05
6387;BME280;3226;42.162;24.756;2023-04-02T08:02:41;98903.28;;;15.37;44.91
6387;BME280;3226;42.162;24.756;2023-04-02T08:05:09;98893.94;;;15.72;43.66
6387;BME280;3226;42.162;24.756;2023-04-02T08:07:37;98888.75;;;15.64;44.74
6387;BME280;3226;42.162;24.756;2023-04-02T08:10:07;98894.50;;;15.83;42.98
6387;BME280;3226;42.162;24.756;2023-04-02T08:12:35;98903.97;;;15.54;43.22
6387;BME280;3226;42.162;24.756;2023-04-02T08:15:04;98897.66;;;16.01;42.80
6387;BME280;3226;42.162;24.756;2023-04-02T08:17:34;98897.22;;;15.36;42.51
6387;BME280;3226;42.162;24.756;2023-04-02T08:20:03;98897.69;;;15.40;43.34
6387;BME280;3226;42.162;24.756;2023-04-02T08:22:32;98899.69;;;15.76;42.31
6387;BME280;3226;42.162;24.756;2023-04-02T08:25:00;98903.63;;;15.80;41.84
6387;BME280;3226;42.162;24.756;2023-04-02T08:27:28;98901.88;;;16.77;40.13
6387;BME280;3226;42.162;24.756;2023-04-02T08:29:56;98906.09;;;16.87;40.28
6387;BME280;3226;42.162;24.756;2023-04-02T08:32:24;98900.66;;;17.10;38.80
6387;BME280;3226;42.162;24.756;2023-04-02T08:34:56;98888.25;;;17.32;38.59
6387;BME280;3226;42.162;24.756;2023-04-02T08:37:23;98891.47;;;17.49;36.86
6387;BME280;3226;42.162;24.756;2023-04-02T08:39:51;98813.16;;;16.90;37.17
6387;BME280;3226;42.162;24.756;2023-04-02T08:42:25;98890.88;;;17.11;36.30
6387;BME280;3226;42.162;24.756;2023-04-02T08:45:12;98889.19;;;17.25;35.81
6387;BME280;3226;42.162;24.756;2023-04-02T08:47:53;98882.69;;;17.49;36.28
6387;BME280;3226;42.162;24.756;2023-04-02T08:50:28;98868.25;;;17.80;36.47
6387;BME280;3226;42.162;24.756;2023-04-02T08:52:58;98863.59;;;18.53;35.00
6387;BME280;3226;42.162;24.756;2023-04-02T08:55:32;98890.50;;;18.98;34.12
6387;BME280;3226;42.162;24.756;2023-04-02T08:58:09;98890.19;;;18.24;33.89
6387;BME280;3226;42.162;24.756;2023-04-02T09:00:43;98878.63;;;17.46;35.04
6387;BME280;3226;42.162;24.756;2023-04-02T09:03:16;98880.59;;;17.66;35.67
6387;BME280;3226;42.162;24.756;2023-04-02T09:05:48;98856.56;;;17.96;35.76
6387;BME280;3226;42.162;24.756;2023-04-02T09:08:19;98883.09;;;18.87;33.81
6387;BME280;3226;42.162;24.756;2023-04-02T09:10:50;98879.53;;;19.42;33.71
6387;BME280;3226;42.162;24.756;2023-04-02T09:13:23;98875.25;;;19.61;32.96
6387;BME280;3226;42.162;24.756;2023-04-02T09:15:55;98874.94;;;18.33;33.60
6387;BME280;3226;42.162;24.756;2023-04-02T09:18:27;98872.81;;;18.63;35.38
6387;BME280;3226;42.162;24.756;2023-04-02T09:20:59;98870.34;;;19.71;33.96
6387;BME280;3226;42.162;24.756;2023-04-02T09:23:30;98866.28;;;20.48;32.33
6387;BME280;3226;42.162;24.756;2023-04-02T09:25:58;98861.75;;;19.69;33.19
6387;BME280;3226;42.162;24.756;2023-04-02T09:28:30;98865.66;;;19.40;34.24
6387;BME280;3226;42.162;24.756;2023-04-02T09:31:02;98862.03;;;20.92;33.36
6387;BME280;3226;42.162;24.756;2023-04-02T09:33:40;98868.31;;;21.30;32.06
6387;BME280;3226;42.162;24.756;2023-04-02T09:36:24;98855.13;;;21.93;30.33
6387;BME280;3226;42.162;24.756;2023-04-02T09:38:58;98851.47;;;21.87;30.26
6387;BME280;3226;42.162;24.756;2023-04-02T09:41:28;98848.44;;;22.21;30.82
6387;BME280;3226;42.162;24.756;2023-04-02T09:44:19;98844.81;;;20.56;30.95
6387;BME280;3226;42.162;24.756;2023-04-02T09:46:58;98838.47;;;19.78;31.34
6387;BME280;3226;42.162;24.756;2023-04-02T09:49:31;98838.63;;;20.10;32.22
6387;BME280;3226;42.162;24.756;2023-04-02T09:52:25;98837.16;;;20.66;31.51
6387;BME280;3226;42.162;24.756;2023-04-02T09:55:17;98836.28;;;21.44;30.36
6387;BME280;3226;42.162;24.756;2023-04-02T09:57:46;98808.97;;;21.74;29.27
6387;BME280;3226;42.162;24.756;2023-04-02T10:00:17;98826.31;;;21.58;28.59
6387;BME280;3226;42.162;24.756;2023-04-02T10:03:01;98827.56;;;21.04;28.47
6387;BME280;3226;42.162;24.756;2023-04-02T10:05:31;98829.63;;;20.57;28.44
6387;BME280;3226;42.162;24.756;2023-04-02T10:08:17;98816.34;;;20.11;29.41
6387;BME280;3226;42.162;24.756;2023-04-02T10:10:47;98812.50;;;20.00;29.86
6387;BME280;3226;42.162;24.756;2023-04-02T10:13:21;98808.75;;;20.15;29.07
6387;BME280;3226;42.162;24.756;2023-04-02T10:15:54;98816.16;;;20.06;28.18
6387;BME280;3226;42.162;24.756;2023-04-02T10:18:32;98811.69;;;20.00;27.80
6387;BME280;3226;42.162;24.756;2023-04-02T10:21:05;98811.28;;;19.83;26.57
6387;BME280;3226;42.162;24.756;2023-04-02T10:23:34;98812.66;;;20.05;26.75
6387;BME280;3226;42.162;24.756;2023-04-02T10:26:15;98811.66;;;19.86;27.33
6387;BME280;3226;42.162;24.756;2023-04-02T10:28:59;98807.22;;;19.67;27.74
6387;BME280;3226;42.162;24.756;2023-04-02T10:31:37;98805.63;;;19.18;27.90
6387;BME280;3226;42.162;24.756;2023-04-02T10:34:12;98803.56;;;19.07;29.88
6387;BME280;3226;42.162;24.756;2023-04-02T10:36:48;98798.69;;;19.11;29.55
6387;BME280;3226;42.162;24.756;2023-04-02T10:39:22;98791.25;;;18.86;30.52
6387;BME280;3226;42.162;24.756;2023-04-02T10:41:57;98799.50;;;19.31;31.20
6387;BME280;3226;42.162;24.756;2023-04-02T10:44:35;98803.22;;;18.55;29.48
6387;BME280;3226;42.162;24.756;2023-04-02T10:50:03;98785.63;;;19.02;29.45
6387;BME280;3226;42.162;24.756;2023-04-02T10:52:38;98796.84;;;19.25;29.97
6387;BME280;3226;42.162;24.756;2023-04-02T10:55:15;98786.97;;;19.79;29.90
6387;BME280;3226;42.162;24.756;2023-04-02T10:57:44;98779.44;;;19.69;28.34
6387;BME280;3226;42.162;24.756;2023-04-02T11:00:17;98765.16;;;19.43;28.16
6387;BME280;3226;42.162;24.756;2023-04-02T11:02:51;98769.22;;;19.73;27.66
6387;BME280;3226;42.162;24.756;2023-04-02T11:05:25;98763.03;;;19.92;27.17
6387;BME280;3226;42.162;24.756;2023-04-02T11:08:01;98771.78;;;20.06;28.35
6387;BME280;3226;42.162;24.756;2023-04-02T11:10:34;98765.09;;;19.97;28.43
6387;BME280;3226;42.162;24.756;2023-04-02T11:13:08;98768.75;;;19.96;29.63
6387;BME280;3226;42.162;24.756;2023-04-02T11:15:41;98762.81;;;19.87;28.61
6387;BME280;3226;42.162;24.756;2023-04-02T11:18:22;98756.34;;;19.70;28.72
6387;BME280;3226;42.162;24.756;2023-04-02T11:21:01;98761.06;;;19.54;28.75
6387;BME280;3226;42.162;24.756;2023-04-02T11:23:32;98754.13;;;19.53;28.68
6387;BME280;3226;42.162;24.756;2023-04-02T11:29:14;98750.16;;;19.96;29.14
6387;BME280;3226;42.162;24.756;2023-04-02T11:31:43;98746.91;;;20.33;27.96
6387;BME280;3226;42.162;24.756;2023-04-02T11:34:14;98736.47;;;20.38;28.71
6387;BME280;3226;42.162;24.756;2023-04-02T11:36:58;98748.16;;;20.37;28.02
6387;BME280;3226;42.162;24.756;2023-04-02T11:39:48;98741.53;;;20.07;28.28
6387;BME280;3226;42.162;24.756;2023-04-02T11:42:25;98733.56;;;20.07;28.93
6387;BME280;3226;42.162;24.756;2023-04-02T11:44:58;98738.03;;;19.21;28.99
6387;BME280;3226;42.162;24.756;2023-04-02T11:47:27;98732.88;;;19.53;30.02
6387;BME280;3226;42.162;24.756;2023-04-02T11:50:05;98739.94;;;19.86;29.67
6387;BME280;3226;42.162;24.756;2023-04-02T11:52:36;98725.72;;;19.60;28.23
6387;BME280;3226;42.162;24.756;2023-04-02T11:55:20;98724.56;;;19.23;29.09
6387;BME280;3226;42.162;24.756;2023-04-02T11:58:00;98727.19;;;19.36;29.36
6387;BME280;3226;42.162;24.756;2023-04-02T12:00:49;98729.25;;;19.41;29.61
6387;BME280;3226;42.162;24.756;2023-04-02T12:03:34;98717.22;;;19.18;29.49
6387;BME280;3226;42.162;24.756;2023-04-02T12:06:08;98721.94;;;19.29;29.34
6387;BME280;3226;42.162;24.756;2023-04-02T12:08:46;98711.69;;;18.72;29.41
6387;BME280;3226;42.162;24.756;2023-04-02T12:11:31;98716.22;;;19.05;29.73
6387;BME280;3226;42.162;24.756;2023-04-02T12:14:01;98704.97;;;18.90;29.23
6387;BME280;3226;42.162;24.756;2023-04-02T12:16:33;98722.34;;;19.19;29.63
6387;BME280;3226;42.162;24.756;2023-04-02T12:19:07;98720.69;;;19.25;29.77
6387;BME280;3226;42.162;24.756;2023-04-02T12:21:36;98702.72;;;19.07;29.09
6387;BME280;3226;42.162;24.756;2023-04-02T12:24:05;98702.72;;;18.87;29.71
6387;BME280;3226;42.162;24.756;2023-04-02T12:26:35;98706.81;;;18.96;29.60
6387;BME280;3226;42.162;24.756;2023-04-02T12:29:23;98708.25;;;18.99;29.38
6387;BME280;3226;42.162;24.756;2023-04-02T12:31:55;98700.72;;;19.02;29.87
6387;BME280;3226;42.162;24.756;2023-04-02T12:34:24;98705.59;;;19.32;29.65
6387;BME280;3226;42.162;24.756;2023-04-02T12:36:55;98705.66;;;19.78;29.71
6387;BME280;3226;42.162;24.756;2023-04-02T12:39:25;98704.22;;;19.75;28.46
6387;BME280;3226;42.162;24.756;2023-04-02T12:41:54;98697.25;;;19.15;28.84
6387;BME280;3226;42.162;24.756;2023-04-02T12:44:24;98696.38;;;19.35;29.30
6387;BME280;3226;42.162;24.756;2023-04-02T12:46:54;98686.72;;;19.61;29.26
6387;BME280;3226;42.162;24.756;2023-04-02T12:49:33;98693.00;;;19.73;29.08
6387;BME280;3226;42.162;24.756;2023-04-02T12:52:03;98700.59;;;19.70;28.70
6387;BME280;3226;42.162;24.756;2023-04-02T12:54:35;98692.03;;;19.61;28.90
6387;BME280;3226;42.162;24.756;2023-04-02T12:57:37;98693.59;;;19.75;28.80
6387;BME280;3226;42.162;24.756;2023-04-02T13:03:19;98693.97;;;19.92;28.94
6387;BME280;3226;42.162;24.756;2023-04-02T13:05:51;98696.84;;;19.91;29.25
6387;BME280;3226;42.162;24.756;2023-04-02T13:08:22;98693.75;;;19.87;29.16
6387;BME280;3226;42.162;24.756;2023-04-02T13:10:54;98689.38;;;20.13;28.99
6387;BME280;3226;42.162;24.756;2023-04-02T13:13:26;98703.38;;;19.95;28.89
6387;BME280;3226;42.162;24.756;2023-04-02T13:16:00;98691.88;;;20.08;29.31
6387;BME280;3226;42.162;24.756;2023-04-02T13:18:31;98689.13;;;20.21;29.30
6387;BME280;3226;42.162;24.756;2023-04-02T13:21:01;98691.94;;;19.88;28.82
6387;BME280;3226;42.162;24.756;2023-04-02T13:23:34;98685.69;;;19.69;29.33
6387;BME280;3226;42.162;24.756;2023-04-02T13:26:13;98685.19;;;19.92;29.11
6387;BME280;3226;42.162;24.756;2023-04-02T13:28:53;98672.75;;;19.79;29.58
6387;BME280;3226;42.162;24.756;2023-04-02T13:31:22;98688.16;;;19.63;29.80
6387;BME280;3226;42.162;24.756;2023-04-02T13:33:51;98675.41;;;19.79;29.88
6387;BME280;3226;42.162;24.756;2023-04-02T13:36:19;98678.19;;;19.98;29.78
6387;BME280;3226;42.162;24.756;2023-04-02T13:38:47;98676.72;;;20.08;29.65
6387;BME280;3226;42.162;24.756;2023-04-02T13:41:24;98675.75;;;20.03;29.74
6387;BME280;3226;42.162;24.756;2023-04-02T13:43:53;98679.28;;;19.83;30.10
6387;BME280;3226;42.162;24.756;2023-04-02T13:46:24;98668.78;;;19.49;30.30
6387;BME280;3226;42.162;24.756;2023-04-02T13:48:54;98663.06;;;19.46;30.48
6387;BME280;3226;42.162;24.756;2023-04-02T13:51:25;98670.59;;;19.62;30.37
6387;BME280;3226;42.162;24.756;2023-04-02T13:53:56;98675.22;;;19.81;30.20
6387;BME280;3226;42.162;24.756;2023-04-02T13:56:24;98668.44;;;19.91;30.14
6387;BME280;3226;42.162;24.756;2023-04-02T13:58:52;98671.47;;;19.88;30.20
6387;BME280;3226;42.162;24.756;2023-04-02T14:01:21;98677.13;;;19.53;30.13
6387;BME280;3226;42.162;24.756;2023-04-02T14:03:53;98673.97;;;19.83;30.24
6387;BME280;3226;42.162;24.756;2023-04-02T14:06:33;98676.94;;;20.07;29.77
6387;BME280;3226;42.162;24.756;2023-04-02T14:09:12;98664.00;;;20.17;29.45
6387;BME280;3226;42.162;24.756;2023-04-02T14:11:52;98675.38;;;20.31;29.67
6387;BME280;3226;42.162;24.756;2023-04-02T14:14:41;98679.19;;;20.42;29.09
6387;BME280;3226;42.162;24.756;2023-04-02T14:17:24;98671.13;;;20.23;28.90
6387;BME280;3226;42.162;24.756;2023-04-02T14:20:11;98669.59;;;20.02;29.21
6387;BME280;3226;42.162;24.756;2023-04-02T14:22:57;98674.13;;;19.88;30.23
6387;BME280;3226;42.162;24.756;2023-04-02T14:25:32;98646.03;;;19.67;29.86
6387;BME280;3226;42.162;24.756;2023-04-02T14:28:08;98671.91;;;19.92;29.98
6387;BME280;3226;42.162;24.756;2023-04-02T14:30:45;98674.31;;;20.00;29.61
6387;BME280;3226;42.162;24.756;2023-04-02T14:33:24;98675.25;;;19.67;29.69
6387;BME280;3226;42.162;24.756;2023-04-02T14:36:04;98674.16;;;19.23;30.17
6387;BME280;3226;42.162;24.756;2023-04-02T14:38:40;98672.53;;;19.15;30.88
6387;BME280;3226;42.162;24.756;2023-04-02T14:41:16;98670.09;;;18.93;30.54
6387;BME280;3226;42.162;24.756;2023-04-02T14:43:51;98681.50;;;18.73;30.96
6387;BME280;3226;42.162;24.756;2023-04-02T14:46:24;98672.94;;;18.91;30.90
6387;BME280;3226;42.162;24.756;2023-04-02T14:48:55;98661.72;;;19.03;30.35
6387;BME280;3226;42.162;24.756;2023-04-02T14:51:29;98667.03;;;19.03;30.62
6387;BME280;3226;42.162;24.756;2023-04-02T14:54:03;98661.91;;;19.28;29.82
6387;BME280;3226;42.162;24.756;2023-04-02T14:56:38;98649.00;;;19.32;30.09
6387;BME280;3226;42.162;24.756;2023-04-02T14:59:26;98664.75;;;19.33;29.74
6387;BME280;3226;42.162;24.756;2023-04-02T15:01:59;98661.44;;;19.52;29.80
6387;BME280;3226;42.162;24.756;2023-04-02T15:04:34;98661.69;;;19.82;29.71
6387;BME280;3226;42.162;24.756;2023-04-02T15:07:13;98634.47;;;19.48;29.46
6387;BME280;3226;42.162;24.756;2023-04-02T15:09:48;98673.59;;;19.73;29.37
6387;BME280;3226;42.162;24.756;2023-04-02T15:12:21;98677.81;;;19.87;29.47
6387;BME280;3226;42.162;24.756;2023-04-02T15:14:54;98682.09;;;20.02;29.40
6387;BME280;3226;42.162;24.756;2023-04-02T15:17:25;98684.75;;;19.88;29.17